Time;durP1;ratioP1;P1;durP2;ratioP2;P2;SDS_P1;SDS_P2;PMS_P1;PMS_P2;Temp;Humidity;BMP_temperature;BMP_pressure;BME280_temperature;BME280_humidity;BME280_pressure;Samples;Min_cycle;Max_cycle;Signal;HPM_P1;HPM_P2
2021/12/19 00:01:37;;;;;;;;;;;;;;;4.79;89.77;98937.65;1699235;81;22153;-86
2021/12/19 00:04:18;;;;;;;;;;;;;;;4.82;89.81;98937.97;1708534;81;25978;-86
2021/12/19 00:09:13;;;;;;;;;;;;;;;4.85;89.91;98944.34;1747609;81;20402;-88
2021/12/19 00:11:39;;;;;;;;;;;;;;;4.86;89.94;98933.89;1742216;81;24682;-85
2021/12/19 00:14:06;;;;;;;;;;;;;;;4.89;89.98;98929.05;1738300;81;22001;-85
2021/12/19 00:16:33;;;;;;;;;;;;;;;4.89;90.02;98926.46;1744044;81;25997;-87
2021/12/19 00:19:00;;;;;;;;;;;;;;;4.89;90.07;98922.57;1741707;81;24429;-85
2021/12/19 00:21:26;;;;;;;;;;;;;;;4.91;90.10;98925.96;1755897;81;20236;-87
2021/12/19 00:23:53;;;;;;;;;;;;;;;4.91;90.15;98922.88;1743933;80;25623;-86
2021/12/19 00:26:19;;;;;;;;;;;;;;;4.92;90.16;98928.92;1747761;80;22028;-86
2021/12/19 00:28:48;;;;;;;;;;;;;;;4.89;90.19;98920.83;1740788;81;26177;-87
2021/12/19 00:31:14;;;;;;;;;;;;;;;4.88;90.20;98913.94;1734248;81;24443;-84
2021/12/19 00:33:41;;;;;;;;;;;;;;;4.86;90.20;98911.00;1743876;81;20217;-87
2021/12/19 00:36:09;;;;;;;;;;;;;;;4.81;90.19;98917.67;1738299;81;24639;-86
2021/12/19 00:38:35;;;;;;;;;;;;;;;4.77;90.20;98921.30;1745048;81;21982;-87
2021/12/19 00:41:02;;;;;;;;;;;;;;;4.76;90.21;98919.59;1747098;81;26011;-87
2021/12/19 00:46:07;;;;;;;;;;;;;;;4.74;90.28;98907.17;1740955;80;20225;-86
2021/12/19 00:48:34;;;;;;;;;;;;;;;4.70;90.29;98902.98;1736565;81;25254;-85
2021/12/19 00:51:01;;;;;;;;;;;;;;;4.66;90.31;98912.23;1737222;81;22084;-86
2021/12/19 00:53:27;;;;;;;;;;;;;;;4.63;90.36;98908.03;1733109;80;25942;-86
2021/12/19 00:55:54;;;;;;;;;;;;;;;4.61;90.42;98901.60;1746069;81;24489;-86
2021/12/19 00:58:20;;;;;;;;;;;;;;;4.59;90.48;98906.44;1738516;81;20246;-87
2021/12/19 01:00:46;;;;;;;;;;;;;;;4.56;90.56;98908.71;1741801;81;24576;-86
2021/12/19 01:03:12;;;;;;;;;;;;;;;4.54;90.62;98904.47;1741062;81;22018;-86
2021/12/19 01:05:39;;;;;;;;;;;;;;;4.53;90.72;98904.92;1743871;81;25952;-84
2021/12/19 01:08:06;;;;;;;;;;;;;;;4.54;90.83;98902.73;1748801;80;24487;-87
2021/12/19 01:10:32;;;;;;;;;;;;;;;4.52;90.92;98897.23;1746067;80;20226;-86
2021/12/19 01:12:58;;;;;;;;;;;;;;;4.50;91.03;98900.31;1729390;81;24548;-87
2021/12/19 01:15:28;;;;;;;;;;;;;;;4.47;91.13;98897.38;1735773;81;22068;-85
2021/12/19 01:17:55;;;;;;;;;;;;;;;4.48;91.25;98901.66;1748137;81;26048;-85
2021/12/19 01:20:23;;;;;;;;;;;;;;;4.50;91.40;98901.61;1721355;81;24542;-87
2021/12/19 01:22:49;;;;;;;;;;;;;;;4.48;91.52;98897.78;1712920;81;20166;-84
2021/12/19 01:25:15;;;;;;;;;;;;;;;4.49;91.64;98884.38;1737934;81;24628;-87
2021/12/19 01:27:42;;;;;;;;;;;;;;;4.46;91.78;98884.50;1736282;81;21967;-87
2021/12/19 01:30:09;;;;;;;;;;;;;;;4.42;91.87;98877.75;1742456;81;26073;-87
2021/12/19 01:32:35;;;;;;;;;;;;;;;4.39;91.98;98867.04;1746421;81;25242;-87
2021/12/19 01:35:01;;;;;;;;;;;;;;;4.38;92.09;98866.64;1741094;81;20208;-87
2021/12/19 01:37:28;;;;;;;;;;;;;;;4.38;92.19;98866.64;1741078;81;24569;-87
2021/12/19 01:39:54;;;;;;;;;;;;;;;4.35;92.31;98851.67;1742286;80;21992;-84
2021/12/19 01:42:21;;;;;;;;;;;;;;;4.34;92.40;98845.64;1737969;81;26226;-84
2021/12/19 01:44:47;;;;;;;;;;;;;;;4.29;92.55;98835.91;1743211;81;24487;-87
2021/12/19 01:47:15;;;;;;;;;;;;;;;4.28;92.64;98832.92;1740632;81;20443;-86
2021/12/19 01:49:46;;;;;;;;;;;;;;;4.25;92.78;98834.34;1741569;81;25213;-85
2021/12/19 01:52:12;;;;;;;;;;;;;;;4.24;92.92;98830.06;1742784;81;22007;-86
2021/12/19 01:54:38;;;;;;;;;;;;;;;4.26;93.05;98834.72;1742707;81;26027;-85
2021/12/19 01:57:04;;;;;;;;;;;;;;;4.27;93.20;98826.05;1736770;81;24493;-86
2021/12/19 01:59:30;;;;;;;;;;;;;;;4.24;93.31;98815.81;1742870;80;20297;-86
2021/12/19 02:01:56;;;;;;;;;;;;;;;4.23;93.43;98811.53;1726143;81;20224;-86
2021/12/19 02:04:23;;;;;;;;;;;;;;;4.24;93.56;98804.16;1739779;81;20275;-86
2021/12/19 02:06:50;;;;;;;;;;;;;;;4.23;93.69;98797.28;1747199;81;27586;-84
2021/12/19 02:09:17;;;;;;;;;;;;;;;4.23;93.79;98789.52;1749147;80;24466;-84
2021/12/19 02:11:43;;;;;;;;;;;;;;;4.24;93.91;98789.06;1746369;81;20479;-86
2021/12/19 02:14:10;;;;;;;;;;;;;;;4.24;94.05;98791.66;1753573;81;24553;-84
2021/12/19 02:16:37;;;;;;;;;;;;;;;4.24;94.17;98786.03;1750581;81;22051;-84
2021/12/19 02:19:04;;;;;;;;;;;;;;;4.21;94.29;98786.98;1749514;81;25983;-85
2021/12/19 02:21:30;;;;;;;;;;;;;;;4.19;94.41;98771.96;1755453;79;24486;-85
2021/12/19 02:23:57;;;;;;;;;;;;;;;4.18;94.53;98765.54;1759452;81;20300;-86
2021/12/19 02:26:23;;;;;;;;;;;;;;;4.17;94.64;98763.84;1756372;81;24553;-86
2021/12/19 02:28:50;;;;;;;;;;;;;;;4.16;94.74;98755.68;1753787;81;21951;-83
2021/12/19 02:31:16;;;;;;;;;;;;;;;4.16;94.86;98749.20;1756685;81;21037;-83
2021/12/19 02:33:53;;;;;;;;;;;;;;;4.15;94.98;98756.13;1755462;81;24481;-87
2021/12/19 02:49:33;;;;;;;;;;;;;;;4.13;95.62;98739.82;1773920;78;20186;-86
2021/12/19 02:52:00;;;;;;;;;;;;;;;4.13;95.72;98734.64;1774326;80;24558;-83
2021/12/19 02:54:28;;;;;;;;;;;;;;;4.13;95.83;98736.39;1700194;82;22694;-85
2021/12/19 02:56:54;;;;;;;;;;;;;;;4.14;95.91;98740.67;1757617;81;26801;-85
2021/12/19 02:59:21;;;;;;;;;;;;;;;4.11;96.01;98726.08;1761788;81;24443;-85
2021/12/19 03:01:47;;;;;;;;;;;;;;;4.15;96.11;98717.28;1756377;81;20315;-87
2021/12/19 03:04:14;;;;;;;;;;;;;;;4.15;96.20;98712.09;1756409;81;24546;-87
2021/12/19 03:06:45;;;;;;;;;;;;;;;4.13;96.28;98706.16;1746591;81;22034;-86
2021/12/19 03:09:11;;;;;;;;;;;;;;;4.15;96.39;98700.89;1748381;81;25988;-87
2021/12/19 03:19:33;;;;;;;;;;;;;;;4.14;96.69;98685.83;1746407;81;21915;-86
2021/12/19 03:21:59;;;;;;;;;;;;;;;4.14;96.75;98677.22;1752027;81;25988;-82
2021/12/19 03:24:25;;;;;;;;;;;;;;;4.15;96.83;98669.36;1743668;81;24118;-84
2021/12/19 03:26:52;;;;;;;;;;;;;;;4.14;96.85;98648.28;1743380;81;20262;-86
2021/12/19 03:29:18;;;;;;;;;;;;;;;4.15;96.92;98653.83;1743570;81;24580;-86
2021/12/19 03:31:44;;;;;;;;;;;;;;;4.18;96.96;98642.52;1741106;81;22052;-83
2021/12/19 03:34:12;;;;;;;;;;;;;;;4.16;97.00;98633.95;1737266;81;26286;-86
2021/12/19 03:36:45;;;;;;;;;;;;;;;4.17;97.07;98626.58;1739423;81;25186;-86
2021/12/19 03:39:25;;;;;;;;;;;;;;;4.19;97.12;98621.73;1761400;80;20509;-86
2021/12/19 03:41:42;;;;;;;;;;;;;;;4.20;97.14;98615.63;1748842;81;24571;-86
2021/12/19 03:44:08;;;;;;;;;;;;;;;4.24;97.18;98616.81;1747753;81;21957;-87
2021/12/19 03:46:35;;;;;;;;;;;;;;;4.24;97.23;98600.82;1741868;81;25961;-87
2021/12/19 03:49:01;;;;;;;;;;;;;;;4.27;97.29;98595.50;1752374;80;24392;-87
2021/12/19 03:51:27;;;;;;;;;;;;;;;4.25;97.31;98588.27;1748387;80;20215;-87
2021/12/19 03:54:00;;;;;;;;;;;;;;;4.28;97.33;98578.20;1746142;80;24531;-87
2021/12/19 03:56:26;;;;;;;;;;;;;;;4.27;97.37;98560.52;1748647;81;22010;-87
2021/12/19 03:58:53;;;;;;;;;;;;;;;4.27;97.37;98546.28;1747793;81;26228;-85
2021/12/19 04:01:20;;;;;;;;;;;;;;;4.25;97.36;98549.41;1740556;81;24502;-84
2021/12/19 04:03:49;;;;;;;;;;;;;;;4.24;97.35;98550.31;1739843;81;20157;-86
2021/12/19 04:06:18;;;;;;;;;;;;;;;4.24;97.35;98543.84;1743220;81;25374;-86
2021/12/19 04:08:47;;;;;;;;;;;;;;;4.28;97.37;98541.94;1738710;81;21996;-87
2021/12/19 04:11:14;;;;;;;;;;;;;;;4.26;97.35;98535.97;1741387;81;26208;-86
2021/12/19 04:13:41;;;;;;;;;;;;;;;4.27;97.35;98538.96;1742183;81;25013;-87
2021/12/19 04:16:07;;;;;;;;;;;;;;;4.26;97.31;98538.11;1746548;81;20363;-87
2021/12/19 04:18:33;;;;;;;;;;;;;;;4.25;97.32;98537.75;1745733;81;24588;-86
2021/12/19 04:20:59;;;;;;;;;;;;;;;4.24;97.29;98524.41;1762905;80;22765;-86
2021/12/19 04:23:30;;;;;;;;;;;;;;;4.27;97.28;98515.64;1764065;80;26675;-86
2021/12/19 04:25:53;;;;;;;;;;;;;;;4.25;97.27;98511.85;1765306;80;24661;-86
2021/12/19 04:28:19;;;;;;;;;;;;;;;4.24;97.26;98506.28;1763476;80;20307;-83
2021/12/19 04:30:46;;;;;;;;;;;;;;;4.21;97.21;98498.63;1762803;80;20202;-83
2021/12/19 04:33:13;;;;;;;;;;;;;;;4.20;97.18;98490.00;1756322;80;22035;-83
2021/12/19 04:35:41;;;;;;;;;;;;;;;4.20;97.15;98486.57;1745608;81;26098;-86
2021/12/19 04:57:06;;;;;;;;;;;;;;;4.13;97.04;98489.06;1749156;80;24611;-85
2021/12/19 04:59:49;;;;;;;;;;;;;;;4.11;97.03;98494.30;1750792;79;22842;-86
2021/12/19 05:15:27;;;;;;;;;;;;;;;4.26;97.12;98465.59;1772185;80;26773;-87
2021/12/19 05:17:55;;;;;;;;;;;;;;;4.27;97.11;98461.25;1764758;80;26033;-87
2021/12/19 05:20:25;;;;;;;;;;;;;;;4.28;97.11;98469.41;1754637;80;20226;-83
2021/12/19 05:22:52;;;;;;;;;;;;;;;4.28;97.12;98459.89;1756855;80;24739;-86
2021/12/19 05:25:19;;;;;;;;;;;;;;;4.29;97.11;98460.29;1755372;80;22001;-86
2021/12/19 05:27:46;;;;;;;;;;;;;;;4.30;97.09;98461.13;1754584;81;26764;-86
2021/12/19 05:30:13;;;;;;;;;;;;;;;4.33;97.08;98472.64;1758406;80;24425;-85
2021/12/19 05:32:43;;;;;;;;;;;;;;;4.34;97.08;98466.11;1749995;81;20171;-83
2021/12/19 05:35:11;;;;;;;;;;;;;;;4.37;97.11;98450.86;1755771;80;24557;-83
2021/12/19 05:45:51;;;;;;;;;;;;;;;4.39;97.05;98431.77;1753118;81;20223;-86
2021/12/19 05:48:17;;;;;;;;;;;;;;;4.36;97.03;98428.48;1758547;81;24557;-84
2021/12/19 05:50:43;;;;;;;;;;;;;;;4.40;97.01;98438.63;1755802;80;22092;-84
2021/12/19 05:53:14;;;;;;;;;;;;;;;4.41;96.97;98448.09;1756626;81;26766;-83
2021/12/19 05:55:40;;;;;;;;;;;;;;;4.41;96.97;98454.57;1752429;81;24488;-87
2021/12/19 05:58:06;;;;;;;;;;;;;;;4.43;96.95;98452.73;1755054;81;20791;-87
2021/12/19 06:00:35;;;;;;;;;;;;;;;4.44;96.95;98445.35;1759040;81;24671;-86
2021/12/19 06:03:03;;;;;;;;;;;;;;;4.47;96.95;98436.13;1755468;81;22060;-87
2021/12/19 06:05:29;;;;;;;;;;;;;;;4.51;96.98;98435.10;1754195;81;26116;-86
2021/12/19 06:07:55;;;;;;;;;;;;;;;4.53;96.98;98438.45;1751419;81;24481;-87
2021/12/19 06:10:22;;;;;;;;;;;;;;;4.57;96.99;98437.42;1749360;80;20318;-87
2021/12/19 06:12:49;;;;;;;;;;;;;;;4.59;96.97;98439.92;1754842;81;24631;-87
2021/12/19 06:15:15;;;;;;;;;;;;;;;4.62;96.98;98440.64;1751231;80;22049;-87
2021/12/19 06:17:44;;;;;;;;;;;;;;;4.64;96.96;98437.50;1755631;81;26207;-86
2021/12/19 06:20:11;;;;;;;;;;;;;;;4.68;96.99;98425.72;1751719;80;24446;-85
2021/12/19 06:22:38;;;;;;;;;;;;;;;4.69;96.99;98423.52;1752335;81;20543;-83
2021/12/19 06:25:04;;;;;;;;;;;;;;;4.69;96.97;98419.14;1757349;81;25359;-83
2021/12/19 06:27:30;;;;;;;;;;;;;;;4.70;96.97;98424.72;1755530;80;22033;-86
2021/12/19 06:30:04;;;;;;;;;;;;;;;4.71;96.97;98439.36;1752648;80;26017;-85
2021/12/19 06:32:31;;;;;;;;;;;;;;;4.72;96.94;98438.91;1761777;80;24043;-85
2021/12/19 06:34:59;;;;;;;;;;;;;;;4.74;96.92;98428.03;1749224;81;20538;-85
2021/12/19 06:37:25;;;;;;;;;;;;;;;4.76;96.94;98428.78;1762861;81;26317;-85
2021/12/19 06:39:52;;;;;;;;;;;;;;;4.78;96.90;98442.52;1760421;81;22019;-86
2021/12/19 06:42:19;;;;;;;;;;;;;;;4.77;96.89;98439.08;1751305;81;25949;-86
2021/12/19 06:44:45;;;;;;;;;;;;;;;4.81;96.89;98436.72;1758933;81;24487;-86
2021/12/19 06:47:11;;;;;;;;;;;;;;;4.83;96.87;98440.09;1760288;80;20463;-86
2021/12/19 06:49:37;;;;;;;;;;;;;;;4.86;96.90;98448.17;1757116;81;24666;-85
2021/12/19 06:52:03;;;;;;;;;;;;;;;4.87;96.94;98447.27;1751661;81;21918;-85
2021/12/19 06:54:30;;;;;;;;;;;;;;;4.90;96.90;98444.55;1760269;80;26022;-85
2021/12/19 06:56:57;;;;;;;;;;;;;;;4.91;96.93;98444.94;1756791;81;24434;-85
2021/12/19 06:59:23;;;;;;;;;;;;;;;4.92;96.91;98437.06;1747106;81;20203;-86
2021/12/19 07:01:49;;;;;;;;;;;;;;;4.93;96.91;98437.91;1756204;81;24666;-86
2021/12/19 07:04:15;;;;;;;;;;;;;;;4.92;96.86;98435.77;1756694;81;21979;-86
2021/12/19 07:06:41;;;;;;;;;;;;;;;4.92;96.83;98431.87;1754892;81;25976;-86
2021/12/19 07:09:10;;;;;;;;;;;;;;;4.92;96.81;98422.80;1751409;80;24477;-86
2021/12/19 07:11:37;;;;;;;;;;;;;;;4.92;96.80;98424.55;1752977;81;20193;-86
2021/12/19 07:14:03;;;;;;;;;;;;;;;4.94;96.81;98425.33;1745698;81;24674;-86
2021/12/19 07:16:29;;;;;;;;;;;;;;;4.93;96.79;98428.83;1728919;80;22008;-87
2021/12/19 07:18:55;;;;;;;;;;;;;;;4.93;96.78;98423.64;1761074;81;26023;-86
2021/12/19 07:21:23;;;;;;;;;;;;;;;4.94;96.81;98416.25;1754793;80;24467;-85
2021/12/19 07:23:49;;;;;;;;;;;;;;;4.96;96.83;98413.95;1743856;81;20229;-86
2021/12/19 07:26:15;;;;;;;;;;;;;;;4.95;96.84;98404.98;1750049;81;24588;-86
2021/12/19 07:28:44;;;;;;;;;;;;;;;4.95;96.87;98395.90;1741805;80;22044;-86
2021/12/19 07:31:09;;;;;;;;;;;;;;;4.95;96.86;98398.49;1736823;81;26652;-85
2021/12/19 07:33:35;;;;;;;;;;;;;;;4.94;96.85;98391.63;1741389;81;24376;-87
2021/12/19 07:36:02;;;;;;;;;;;;;;;4.93;96.86;98384.30;1742977;81;20462;-87
2021/12/19 07:38:37;;;;;;;;;;;;;;;4.93;96.84;98377.81;1742935;81;24532;-87
2021/12/19 07:40:59;;;;;;;;;;;;;;;4.93;96.85;98371.33;1739961;81;22677;-87
2021/12/19 07:43:25;;;;;;;;;;;;;;;4.94;96.84;98373.47;1749301;81;26222;-87
2021/12/19 07:45:52;;;;;;;;;;;;;;;4.96;96.87;98367.77;1745132;81;24386;-87
2021/12/19 07:48:18;;;;;;;;;;;;;;;4.97;96.88;98359.89;1741497;80;20225;-85
2021/12/19 07:50:44;;;;;;;;;;;;;;;5.01;96.92;98360.14;1745741;81;24580;-85
2021/12/19 07:53:10;;;;;;;;;;;;;;;5.06;96.90;98359.92;1745010;81;22246;-84
2021/12/19 07:55:37;;;;;;;;;;;;;;;5.08;96.93;98355.93;1745812;81;25993;-87
2021/12/19 07:58:03;;;;;;;;;;;;;;;5.10;96.96;98354.11;1744424;81;24460;-86
2021/12/19 08:00:29;;;;;;;;;;;;;;;5.15;96.97;98356.02;1750308;81;20237;-86
2021/12/19 08:02:55;;;;;;;;;;;;;;;5.16;96.98;98357.25;1741876;80;24788;-86
2021/12/19 08:05:22;;;;;;;;;;;;;;;5.18;96.98;98359.33;1741383;81;22114;-85
2021/12/19 08:07:55;;;;;;;;;;;;;;;5.18;97.00;98353.30;1756737;79;26038;-83
2021/12/19 08:12:45;;;;;;;;;;;;;;;5.22;97.01;98353.52;1733598;81;20364;-84
2021/12/19 08:15:11;;;;;;;;;;;;;;;5.23;97.02;98362.98;1743884;81;24585;-83
2021/12/19 08:17:38;;;;;;;;;;;;;;;5.23;97.00;98358.63;1743265;80;21945;-84
2021/12/19 08:20:09;;;;;;;;;;;;;;;5.25;96.95;98363.27;1743814;81;25904;-84
2021/12/19 08:22:36;;;;;;;;;;;;;;;5.27;96.96;98361.91;1752890;81;24475;-86
2021/12/19 08:25:03;;;;;;;;;;;;;;;5.28;96.95;98368.33;1736402;81;20286;-85
2021/12/19 08:27:29;;;;;;;;;;;;;;;5.31;96.98;98368.16;1743082;80;24801;-85
2021/12/19 08:29:55;;;;;;;;;;;;;;;5.34;96.97;98368.48;1738402;81;21940;-86
2021/12/19 08:32:22;;;;;;;;;;;;;;;5.35;96.94;98365.78;1730869;81;25951;-86
2021/12/19 08:34:48;;;;;;;;;;;;;;;5.36;96.91;98371.81;1738899;80;24413;-86
2021/12/19 08:37:15;;;;;;;;;;;;;;;5.36;96.85;98367.92;1736120;81;20197;-84
2021/12/19 08:39:42;;;;;;;;;;;;;;;5.37;96.80;98368.31;1749256;81;24846;-84
2021/12/19 08:42:09;;;;;;;;;;;;;;;5.36;96.70;98371.36;1749129;81;22071;-84
2021/12/19 08:44:36;;;;;;;;;;;;;;;5.38;96.67;98371.30;1754030;81;26088;-86
2021/12/19 08:47:03;;;;;;;;;;;;;;;5.37;96.62;98363.97;1763366;81;24366;-86
2021/12/19 08:49:29;;;;;;;;;;;;;;;5.33;96.58;98374.12;1759725;81;20162;-88
2021/12/19 08:51:55;;;;;;;;;;;;;;;5.30;96.53;98369.52;1760309;81;24775;-86
2021/12/19 08:54:22;;;;;;;;;;;;;;;5.27;96.49;98367.09;1759891;81;22791;-88
2021/12/19 08:56:49;;;;;;;;;;;;;;;5.27;96.51;98373.58;1758338;80;26145;-86
2021/12/19 08:59:15;;;;;;;;;;;;;;;5.27;96.51;98373.58;1758935;81;24411;-85
2021/12/19 09:01:41;;;;;;;;;;;;;;;5.25;96.52;98369.75;1741237;81;20218;-86
2021/12/19 09:04:07;;;;;;;;;;;;;;;5.25;96.54;98370.21;1746111;81;25652;-86
2021/12/19 09:06:34;;;;;;;;;;;;;;;5.23;96.57;98371.61;1729920;82;22075;-86
2021/12/19 09:09:02;;;;;;;;;;;;;;;5.24;96.59;98370.66;1742041;81;25855;-86
2021/12/19 09:11:28;;;;;;;;;;;;;;;5.24;96.64;98366.77;1692060;82;24430;-86
2021/12/19 09:13:54;;;;;;;;;;;;;;;5.26;96.71;98363.66;1696949;82;20231;-86
2021/12/19 09:16:20;;;;;;;;;;;;;;;5.27;96.79;98366.64;1727340;82;24910;-84
2021/12/19 09:18:46;;;;;;;;;;;;;;;5.23;96.84;98363.83;1725632;82;22039;-89
2021/12/19 09:21:19;;;;;;;;;;;;;;;5.19;96.92;98351.89;1722700;82;26084;-85
2021/12/19 09:23:45;;;;;;;;;;;;;;;5.18;96.98;98359.77;1735106;80;25175;-86
2021/12/19 09:26:13;;;;;;;;;;;;;;;5.18;97.07;98351.54;1704940;83;20630;-86
2021/12/19 09:28:39;;;;;;;;;;;;;;;5.21;97.14;98345.34;1723762;81;24741;-84
2021/12/19 09:31:06;;;;;;;;;;;;;;;5.21;97.19;98344.89;1727430;80;21909;-86
2021/12/19 09:33:32;;;;;;;;;;;;;;;5.23;97.28;98356.49;1726777;80;26092;-86
2021/12/19 09:35:59;;;;;;;;;;;;;;;5.21;97.36;98350.08;1694638;83;24530;-86
2021/12/19 09:38:27;;;;;;;;;;;;;;;5.22;97.45;98340.09;1699259;83;20250;-86
2021/12/19 09:41:00;;;;;;;;;;;;;;;5.24;97.54;98342.13;1697778;83;25693;-86
2021/12/19 09:46:07;;;;;;;;;;;;;;;5.21;97.65;98338.41;1731871;82;26882;-86
2021/12/19 09:48:33;;;;;;;;;;;;;;;5.21;97.73;98338.41;1733657;82;24450;-89
2021/12/19 09:50:59;;;;;;;;;;;;;;;5.21;97.77;98326.73;1732549;82;20498;-88
2021/12/19 09:53:27;;;;;;;;;;;;;;;5.25;97.85;98329.55;1713459;82;24477;-87
2021/12/19 09:55:53;;;;;;;;;;;;;;;5.28;97.84;98324.22;1730490;82;22294;-90
2021/12/19 09:58:19;;;;;;;;;;;;;;;5.28;97.87;98316.44;1693844;82;25950;-83
2021/12/19 10:00:45;;;;;;;;;;;;;;;5.27;97.95;98309.56;1701336;82;24659;-84
2021/12/19 10:03:12;;;;;;;;;;;;;;;5.26;97.99;98305.28;1720502;82;20418;-84
2021/12/19 10:05:38;;;;;;;;;;;;;;;5.26;98.03;98300.55;1708608;83;26088;-87
2021/12/19 10:08:04;;;;;;;;;;;;;;;5.27;98.09;98304.38;1740798;81;22049;-88
2021/12/19 10:11:00;;;;;;;;;;;;;;;5.27;98.16;98295.30;1735262;81;25968;-88
2021/12/19 10:13:35;;;;;;;;;;;;;;;5.25;98.21;98285.44;1721115;81;24445;-85
2021/12/19 10:16:03;;;;;;;;;;;;;;;5.27;98.27;98288.81;1728185;80;20201;-87
2021/12/19 10:18:29;;;;;;;;;;;;;;;5.29;98.33;98283.06;1731942;80;24766;-88
2021/12/19 10:20:57;;;;;;;;;;;;;;;5.17;98.34;98260.36;1733330;80;21981;-87
2021/12/19 10:23:25;;;;;;;;;;;;;;;5.24;98.35;98265.59;1748896;81;26029;-88
2021/12/19 10:25:59;;;;;;;;;;;;;;;5.25;98.34;98266.44;1735694;80;24410;-88
2021/12/19 10:28:26;;;;;;;;;;;;;;;5.25;98.37;98256.06;1733918;80;20529;-88
2021/12/19 10:30:52;;;;;;;;;;;;;;;5.24;98.37;98249.19;1738209;81;24903;-88
2021/12/19 10:33:19;;;;;;;;;;;;;;;5.27;98.39;98240.81;1732092;81;21961;-88
2021/12/19 10:35:54;;;;;;;;;;;;;;;5.24;98.28;98243.55;1739235;81;25932;-87
2021/12/19 10:38:23;;;;;;;;;;;;;;;5.23;98.35;98238.46;1724787;81;24617;-90
2021/12/19 10:40:50;;;;;;;;;;;;;;;5.25;98.39;98233.55;1684776;83;20269;-89
2021/12/19 10:43:18;;;;;;;;;;;;;;;5.29;98.40;98232.95;1685665;84;24894;-87
2021/12/19 10:45:46;;;;;;;;;;;;;;;5.31;98.41;98235.84;1676219;83;21963;-88
2021/12/19 10:48:23;;;;;;;;;;;;;;;5.31;98.44;98225.45;1723850;82;25936;-88
2021/12/19 10:50:56;;;;;;;;;;;;;;;5.33;98.46;98217.14;1729240;83;24648;-87
2021/12/19 10:53:24;;;;;;;;;;;;;;;5.34;98.47;98214.94;1716612;83;20340;-87
2021/12/19 10:55:50;;;;;;;;;;;;;;;5.36;98.46;98214.38;1686098;83;24828;-87
2021/12/19 10:58:25;;;;;;;;;;;;;;;5.39;98.49;98206.45;1733701;82;21920;-88
2021/12/19 11:01:08;;;;;;;;;;;;;;;5.40;98.47;98204.20;1745549;81;25963;-89
2021/12/19 11:03:35;;;;;;;;;;;;;;;5.40;98.48;98197.72;1752383;81;25365;-89
2021/12/19 11:06:03;;;;;;;;;;;;;;;5.44;98.50;98190.17;1742279;81;20338;-89
2021/12/19 11:08:31;;;;;;;;;;;;;;;5.43;98.50;98185.90;1696845;83;24929;-89
2021/12/19 11:11:00;;;;;;;;;;;;;;;5.44;98.48;98179.80;1750982;81;21976;-88
2021/12/19 11:13:26;;;;;;;;;;;;;;;5.44;98.46;98168.58;1736613;81;26254;-88
2021/12/19 11:15:52;;;;;;;;;;;;;;;5.45;98.44;98166.36;1749228;81;24565;-88
2021/12/19 11:18:18;;;;;;;;;;;;;;;5.44;98.42;98162.09;1737641;81;20268;-88
2021/12/19 11:20:44;;;;;;;;;;;;;;;5.43;98.42;98159.95;1724255;83;24623;-84
2021/12/19 11:23:10;;;;;;;;;;;;;;;5.44;98.40;98160.79;1739471;81;21942;-84
2021/12/19 11:25:37;;;;;;;;;;;;;;;5.45;98.37;98157.28;1759402;81;25953;-84
2021/12/19 11:28:03;;;;;;;;;;;;;;;5.46;98.35;98155.03;1743144;82;24295;-84
2021/12/19 11:30:30;;;;;;;;;;;;;;;5.46;98.36;98158.47;1739702;82;20305;-88
2021/12/19 11:33:05;;;;;;;;;;;;;;;5.45;98.32;98145.11;1739147;82;24372;-88
2021/12/19 11:35:41;;;;;;;;;;;;;;;5.45;98.30;98136.52;1735798;80;20185;-89
2021/12/19 11:38:12;;;;;;;;;;;;;;;5.42;98.27;98137.97;1747036;81;26052;-88
2021/12/19 11:40:38;;;;;;;;;;;;;;;5.39;98.22;98140.73;1748002;81;25239;-86
2021/12/19 11:43:11;;;;;;;;;;;;;;;5.37;98.20;98135.63;1744072;81;20220;-87
2021/12/19 11:45:42;;;;;;;;;;;;;;;5.36;98.20;98133.10;1752203;81;24821;-85
2021/12/19 11:48:22;;;;;;;;;;;;;;;5.28;98.23;98118.42;1754948;80;21990;-88
2021/12/19 11:50:47;;;;;;;;;;;;;;;5.33;98.28;98135.42;1751368;81;25988;-88
2021/12/19 11:53:14;;;;;;;;;;;;;;;5.31;98.29;98134.65;1757470;81;24683;-86
2021/12/19 11:55:43;;;;;;;;;;;;;;;5.28;98.32;98125.75;1761202;80;20230;-84
2021/12/19 11:58:11;;;;;;;;;;;;;;;5.27;98.39;98119.34;1738992;81;25491;-84
2021/12/19 12:00:39;;;;;;;;;;;;;;;5.22;98.40;98118.29;1720737;82;22093;-84
2021/12/19 12:03:07;;;;;;;;;;;;;;;5.22;98.46;98118.29;1763464;80;26073;-84
2021/12/19 12:05:40;;;;;;;;;;;;;;;5.22;98.57;98116.15;1763352;80;23880;-88
2021/12/19 12:08:08;;;;;;;;;;;;;;;5.24;98.62;98111.70;1742934;81;20219;-85
2021/12/19 12:10:56;;;;;;;;;;;;;;;5.27;98.70;98103.31;1709359;82;24818;-86
2021/12/19 12:13:23;;;;;;;;;;;;;;;5.27;98.79;98102.47;1748411;81;21916;-86
2021/12/19 12:15:54;;;;;;;;;;;;;;;5.27;98.84;98102.47;1731140;81;21966;-86
2021/12/19 12:18:21;;;;;;;;;;;;;;;5.25;98.91;98097.36;1744228;81;25449;-85
2021/12/19 12:20:47;;;;;;;;;;;;;;;5.24;98.94;98092.24;1746672;81;20234;-87
2021/12/19 12:23:13;;;;;;;;;;;;;;;5.25;98.96;98092.17;1757736;81;25089;-88
2021/12/19 12:25:42;;;;;;;;;;;;;;;5.24;99.01;98080.11;1761045;81;22011;-87
2021/12/19 12:28:09;;;;;;;;;;;;;;;5.26;99.04;98077.44;1756790;81;26135;-87
2021/12/19 12:30:45;;;;;;;;;;;;;;;5.25;99.06;98075.30;1760540;81;25018;-88
2021/12/19 12:33:14;;;;;;;;;;;;;;;5.27;99.06;98075.23;1759528;81;20469;-85
2021/12/19 12:35:40;;;;;;;;;;;;;;;5.30;99.09;98071.16;1759175;81;24731;-88
2021/12/19 12:38:07;;;;;;;;;;;;;;;5.30;99.11;98054.30;1756570;81;22060;-87
2021/12/19 12:43:28;;;;;;;;;;;;;;;5.23;99.11;98048.63;1758321;80;25397;-87
2021/12/19 12:46:12;;;;;;;;;;;;;;;5.25;99.12;98041.58;1690522;82;20197;-88
2021/12/19 12:48:42;;;;;;;;;;;;;;;5.27;99.15;98035.02;1748035;80;24788;-86
2021/12/19 12:51:11;;;;;;;;;;;;;;;5.29;99.17;98050.86;1700993;83;22674;-87
2021/12/19 12:53:39;;;;;;;;;;;;;;;5.27;99.18;98046.23;1729594;82;26166;-88
2021/12/19 12:56:12;;;;;;;;;;;;;;;5.20;99.19;98028.03;1707472;82;24511;-86
2021/12/19 12:58:40;;;;;;;;;;;;;;;5.27;99.18;98035.86;1757453;81;20449;-88
2021/12/19 13:01:14;;;;;;;;;;;;;;;5.25;99.18;98049.37;1756850;81;25398;-88
2021/12/19 13:03:42;;;;;;;;;;;;;;;5.26;99.15;98047.16;1746423;81;22147;-88
2021/12/19 13:06:08;;;;;;;;;;;;;;;5.26;99.13;98043.72;1756714;81;26641;-89
2021/12/19 13:08:34;;;;;;;;;;;;;;;5.24;99.14;98048.14;1757079;81;24494;-88
2021/12/19 13:11:01;;;;;;;;;;;;;;;5.23;99.13;98043.90;1760315;80;20261;-89
2021/12/19 13:13:27;;;;;;;;;;;;;;;5.22;99.16;98037.03;1759881;81;24739;-88
2021/12/19 13:15:55;;;;;;;;;;;;;;;5.20;99.14;98042.75;1760256;81;22614;-87
2021/12/19 13:18:21;;;;;;;;;;;;;;;5.19;99.16;98032.84;1756188;81;26043;-87
2021/12/19 13:20:47;;;;;;;;;;;;;;;5.19;99.15;98034.13;1758994;81;24507;-88
2021/12/19 13:23:15;;;;;;;;;;;;;;;5.19;99.16;98035.88;1756274;81;20175;-85
2021/12/19 13:25:42;;;;;;;;;;;;;;;5.17;99.17;98039.05;1761750;81;24906;-88
2021/12/19 13:28:12;;;;;;;;;;;;;;;5.13;99.16;98024.58;1759273;81;22305;-88
2021/12/19 13:30:47;;;;;;;;;;;;;;;5.07;99.19;98034.83;1762201;81;26703;-87
2021/12/19 13:33:16;;;;;;;;;;;;;;;5.04;99.21;98038.86;1758128;81;24454;-85
2021/12/19 13:35:53;;;;;;;;;;;;;;;5.00;99.27;98030.88;1758259;81;20150;-85
2021/12/19 13:38:20;;;;;;;;;;;;;;;5.01;99.30;98035.15;1755401;81;24820;-85
2021/12/19 13:40:47;;;;;;;;;;;;;;;4.99;99.38;98032.63;1757926;81;22688;-85
2021/12/19 13:43:15;;;;;;;;;;;;;;;4.97;99.48;98033.16;1760380;81;26169;-85
2021/12/19 13:45:43;;;;;;;;;;;;;;;5.00;99.56;98033.47;1758275;80;24452;-85
2021/12/19 13:48:14;;;;;;;;;;;;;;;4.99;99.66;98045.59;1761486;81;20244;-85
2021/12/19 13:50:42;;;;;;;;;;;;;;;4.97;99.75;98032.32;1759053;81;24840;-87
2021/12/19 13:53:08;;;;;;;;;;;;;;;4.94;99.81;98024.27;1759244;81;22095;-87
2021/12/19 13:55:47;;;;;;;;;;;;;;;4.94;99.89;98028.61;1727507;81;21177;-86
2021/12/19 13:58:15;;;;;;;;;;;;;;;4.93;99.98;98021.29;1757710;80;24434;-89
2021/12/19 14:00:43;;;;;;;;;;;;;;;4.92;100.00;98021.36;1758014;81;20230;-88
2021/12/19 14:03:09;;;;;;;;;;;;;;;4.89;100.00;98023.67;1756579;81;25371;-88
2021/12/19 14:05:37;;;;;;;;;;;;;;;4.88;100.00;98025.89;1758523;81;22062;-88
2021/12/19 14:08:18;;;;;;;;;;;;;;;4.88;100.00;98006.44;1760295;81;26142;-85
2021/12/19 14:10:44;;;;;;;;;;;;;;;4.90;100.00;98011.09;1759448;81;24455;-86
2021/12/19 14:13:16;;;;;;;;;;;;;;;4.88;100.00;98001.26;1756746;81;20540;-85
2021/12/19 14:15:50;;;;;;;;;;;;;;;4.85;100.00;98005.78;1759239;81;24777;-88